createdAt,value
2019-01-25T00:00:18.898Z,31.1
2019-01-25T00:02:19.546Z,30.2
2019-01-25T00:04:19.237Z,33.3
2019-01-25T00:06:19.561Z,31.2
2019-01-25T00:08:19.211Z,27.5
2019-01-25T00:10:19.349Z,21.7
2019-01-25T00:12:18.946Z,34.9
2019-01-25T00:14:18.572Z,33
2019-01-25T00:16:19.117Z,29.7
2019-01-25T00:18:18.911Z,32.4
2019-01-25T00:20:19.661Z,27.6
2019-01-25T00:22:19.276Z,34.6
2019-01-25T00:24:18.909Z,28.9
2019-01-25T00:26:19.032Z,27.6
2019-01-25T00:28:18.685Z,38.2
2019-01-25T00:30:19.334Z,30.4
2019-01-25T00:32:18.999Z,32.9
2019-01-25T00:34:18.619Z,43.4
2019-01-25T00:36:18.982Z,36.2
2019-01-25T00:38:18.645Z,39.4
2019-01-25T00:40:18.736Z,35.7
2019-01-25T00:42:19.345Z,39.3
2019-01-25T00:44:18.999Z,37.8
2019-01-25T00:46:19.251Z,46.4
2019-01-25T00:48:18.912Z,28.1
2019-01-25T00:50:19.604Z,32.6
2019-01-25T00:52:19.231Z,41.1
2019-01-25T00:54:18.879Z,40.7
2019-01-25T00:56:19.135Z,37.8
2019-01-25T00:58:18.777Z,35
2019-01-25T01:00:19.417Z,42.2
2019-01-25T01:02:19.047Z,41.7
2019-01-25T01:04:18.700Z,38
2019-01-25T01:06:18.686Z,41.4
2019-01-25T01:08:19.296Z,40.7
2019-01-25T01:10:19.425Z,34.8
2019-01-25T01:12:19.068Z,42.5
2019-01-25T01:14:18.707Z,42.3
2019-01-25T01:16:19.111Z,38.6
2019-01-25T01:18:18.812Z,38.3
2019-01-25T01:20:19.497Z,52.9
2019-01-25T01:22:19.083Z,51.1
2019-01-25T01:24:18.701Z,44.4
2019-01-25T01:26:19.219Z,41.1
2019-01-25T01:28:18.857Z,40.6
2019-01-25T01:30:19.488Z,47.7
2019-01-25T01:32:19.106Z,44.1
2019-01-25T01:34:18.754Z,35.7
2019-01-25T01:36:18.630Z,40
2019-01-25T01:38:19.268Z,38.1
2019-01-25T01:40:22.456Z,41.7
2019-01-25T01:42:19.103Z,36.5
2019-01-25T01:44:18.786Z,38.8
2019-01-25T01:46:19.121Z,39.6
2019-01-25T01:48:18.754Z,39.3
2019-01-25T01:50:19.399Z,46.6
2019-01-25T01:52:19.056Z,43
2019-01-25T01:54:18.686Z,36.3
2019-01-25T01:56:19.007Z,41.4
2019-01-25T01:58:18.617Z,44.4
2019-01-25T02:00:19.258Z,44.8
2019-01-25T02:02:18.895Z,35.5
2019-01-25T02:04:19.539Z,45.1
2019-01-25T02:06:18.951Z,37.6
2019-01-25T02:08:18.623Z,39.9
2019-01-25T02:10:18.762Z,42.6
2019-01-25T02:12:19.415Z,39.5
2019-01-25T02:14:19.054Z,47.7
2019-01-25T02:16:18.848Z,40
2019-01-25T02:18:19.575Z,38.1
2019-01-25T02:20:19.219Z,35.8
2019-01-25T02:22:18.868Z,34.6
2019-01-25T02:24:19.517Z,43.5
2019-01-25T02:26:18.826Z,41
2019-01-25T02:28:19.495Z,40.7
2019-01-25T02:30:19.173Z,61
2019-01-25T02:32:18.778Z,39.4
2019-01-25T02:34:19.397Z,41.8
2019-01-25T02:36:19.212Z,44.7
2019-01-25T02:38:18.823Z,48.2
2019-01-25T02:40:18.957Z,49.3
2019-01-25T02:42:18.604Z,41.7
2019-01-25T02:44:19.264Z,46.4
2019-01-25T02:46:19.275Z,38.1
2019-01-25T02:48:18.946Z,34.3
2019-01-25T02:50:18.615Z,41.1
2019-01-25T02:52:19.238Z,45.3
2019-01-25T02:54:18.867Z,40.3
2019-01-25T02:56:19.106Z,35.9
2019-01-25T02:58:18.724Z,40.8
2019-01-25T03:00:19.374Z,36.3
2019-01-25T03:02:19.001Z,43.2
2019-01-25T03:04:18.607Z,45.4
2019-01-25T03:06:18.914Z,40.8
2019-01-25T03:08:19.558Z,43.9
2019-01-25T03:10:18.777Z,38.3
2019-01-25T03:12:19.445Z,42.3
2019-01-25T03:14:19.063Z,44.1
2019-01-25T03:16:18.894Z,38.6
2019-01-25T03:18:18.589Z,41.2
2019-01-25T03:20:19.221Z,44.4
2019-01-25T03:22:19.232Z,44.9
2019-01-25T03:24:18.869Z,41.7
2019-01-25T03:26:19.355Z,38.9
2019-01-25T03:28:19.023Z,39.2
2019-01-25T03:30:18.704Z,44.3
2019-01-25T03:32:19.426Z,38.4
2019-01-25T03:34:19.088Z,49.4
2019-01-25T03:36:18.959Z,44.4
2019-01-25T03:38:18.561Z,42.4
2019-01-25T03:40:18.736Z,45.7
2019-01-25T03:42:19.395Z,33.7
2019-01-25T03:44:19.076Z,41.5
2019-01-25T03:46:18.699Z,38.8
2019-01-25T03:48:19.315Z,40.7
2019-01-25T03:50:19.049Z,39.2
2019-01-25T03:52:18.707Z,41.2
2019-01-25T03:54:19.324Z,48.3
2019-01-25T03:56:18.676Z,36.9
2019-01-25T03:58:19.327Z,44.8
2019-01-25T04:00:18.973Z,36.7
2019-01-25T04:02:19.434Z,38.5
2019-01-25T04:04:19.112Z,44
2019-01-25T04:06:19.478Z,40.3
2019-01-25T04:08:19.111Z,45.8
2019-01-25T04:10:19.239Z,40.7
2019-01-25T04:12:18.785Z,40.8
2019-01-25T04:14:19.474Z,36.3
2019-01-25T04:16:19.371Z,49.2
2019-01-25T04:18:19.040Z,45
2019-01-25T04:20:18.699Z,44.5
2019-01-25T04:22:19.374Z,47.4
2019-01-25T04:24:18.996Z,44.9
2019-01-25T04:26:19.306Z,40.2
2019-01-25T04:28:18.941Z,34.4
2019-01-25T04:30:19.580Z,40
2019-01-25T04:32:19.241Z,46.1
2019-01-25T04:34:18.881Z,44.1
2019-01-25T04:36:19.148Z,38.7
2019-01-25T04:38:18.790Z,56.2
2019-01-25T04:40:18.961Z,50.8
2019-01-25T04:42:18.635Z,43.2
2019-01-25T04:44:19.261Z,47.3
2019-01-25T04:46:19.228Z,39.2
2019-01-25T04:48:18.884Z,49.4
2019-01-25T04:50:21.617Z,45.7
2019-01-25T04:52:19.249Z,45.8
2019-01-25T04:54:18.884Z,41.9
2019-01-25T04:56:18.708Z,43.4
2019-01-25T04:58:19.346Z,38.3
2019-01-25T05:00:18.992Z,45.8
2019-01-25T05:02:18.677Z,46.6
2019-01-25T05:04:19.354Z,53
2019-01-25T05:06:19.295Z,39.5
2019-01-25T05:08:18.952Z,45.1
2019-01-25T05:10:19.218Z,39
2019-01-25T05:12:18.845Z,45
2019-01-25T05:14:19.495Z,41.9
2019-01-25T05:16:19.331Z,63.3
2019-01-25T05:18:18.996Z,48.5
2019-01-25T05:20:18.614Z,49
2019-01-25T05:22:19.268Z,49.3
2019-01-25T05:24:18.921Z,45.6
2019-01-25T05:26:19.136Z,53.3
2019-01-25T05:28:18.770Z,42.8
2019-01-25T05:30:19.435Z,61
2019-01-25T05:32:19.072Z,48.2
2019-01-25T05:34:18.685Z,42.3
2019-01-25T05:36:19.301Z,40.6
2019-01-25T05:38:18.948Z,48.6
2019-01-25T05:40:19.089Z,47
2019-01-25T05:42:18.755Z,46.8
2019-01-25T05:44:19.364Z,49.6
2019-01-25T05:46:19.385Z,41.9
2019-01-25T05:48:19.008Z,54.4
2019-01-25T05:50:18.648Z,43.6
2019-01-25T05:52:19.262Z,58.6
2019-01-25T05:54:18.932Z,42.6
2019-01-25T05:56:18.799Z,45.2
2019-01-25T05:58:19.422Z,46.6
2019-01-25T06:00:19.070Z,52.1
2019-01-25T06:02:18.695Z,50.6
2019-01-25T06:04:19.305Z,46.4
2019-01-25T06:06:19.129Z,48.6
2019-01-25T06:08:18.781Z,48.8
2019-01-25T06:10:18.907Z,58.5
2019-01-25T06:12:19.556Z,51.1
2019-01-25T06:14:19.196Z,49.5
2019-01-25T06:16:18.747Z,45.1
2019-01-25T06:18:19.465Z,46.3
2019-01-25T06:20:19.107Z,49.5
2019-01-25T06:22:18.754Z,44.6
2019-01-25T06:24:19.414Z,53.5
2019-01-25T06:26:18.681Z,50
2019-01-25T06:28:19.310Z,56.2
2019-01-25T06:30:18.971Z,47.2
2019-01-25T06:32:19.349Z,46.2
2019-01-25T06:34:18.973Z,47.9
2019-01-25T06:36:18.668Z,46.3
2019-01-25T06:38:19.292Z,43.8
2019-01-25T06:40:19.402Z,47.3
2019-01-25T06:42:19.004Z,48.9
2019-01-25T06:44:18.622Z,43
2019-01-25T06:46:18.946Z,39.4
2019-01-25T06:48:18.590Z,43.5
2019-01-25T06:50:19.293Z,42.2
2019-01-25T06:52:18.916Z,41.7
2019-01-25T06:54:19.570Z,37.3
2019-01-25T06:56:18.860Z,38
2019-01-25T06:58:19.479Z,51.2
2019-01-25T07:00:19.097Z,40.1
2019-01-25T07:02:18.714Z,48.4
2019-01-25T07:04:19.340Z,43.1
2019-01-25T07:06:19.166Z,37.9
2019-01-25T07:08:18.794Z,40.7
2019-01-25T07:10:19.077Z,41.9
2019-01-25T07:12:18.692Z,46.7
2019-01-25T07:14:19.318Z,47.6
2019-01-25T07:16:18.636Z,55.3
2019-01-25T07:18:19.340Z,44.8
2019-01-25T07:20:18.999Z,42.5
2019-01-25T07:22:18.617Z,40.6
2019-01-25T07:24:19.232Z,38.1
2019-01-25T07:26:19.499Z,48
2019-01-25T07:28:19.104Z,47
2019-01-25T07:30:18.742Z,53
2019-01-25T07:32:19.391Z,44.9
2019-01-25T07:34:19.037Z,42.4
2019-01-25T07:36:19.427Z,40.3
2019-01-25T07:38:19.082Z,39.1
2019-01-25T07:40:19.262Z,32.6
2019-01-25T07:42:19.400Z,31.2
2019-01-25T07:44:19.054Z,37.7
2019-01-25T07:46:18.972Z,34.4
2019-01-25T07:48:18.690Z,36.4
2019-01-25T07:50:19.382Z,38.2
2019-01-25T07:52:19.024Z,41.8
2019-01-25T07:54:18.678Z,42.4
2019-01-25T07:56:19.083Z,40.8
2019-01-25T07:58:18.880Z,45.5
2019-01-25T08:00:19.541Z,34.2
2019-01-25T08:02:19.215Z,44.1
2019-01-25T08:04:18.873Z,39.4
2019-01-25T08:06:19.212Z,37.9
2019-01-25T08:08:18.851Z,37.4
2019-01-25T08:10:18.986Z,41.3
2019-01-25T08:12:18.634Z,39
2019-01-25T08:14:19.263Z,37.6
2019-01-25T08:16:19.208Z,36.9
2019-01-25T08:18:18.957Z,32.1
2019-01-25T08:20:18.829Z,33
2019-01-25T08:22:19.487Z,42.7
2019-01-25T08:24:19.203Z,41.9
2019-01-25T08:26:19.525Z,44.2
2019-01-25T08:28:19.178Z,44.9
2019-01-25T08:30:18.834Z,36.4
2019-01-25T08:32:19.497Z,47.7
2019-01-25T08:34:19.137Z,35.2
2019-01-25T08:36:18.729Z,46.6
2019-01-25T08:38:19.479Z,49.3
2019-01-25T08:40:18.853Z,33.8
2019-01-25T08:42:18.596Z,33.5
2019-01-25T08:44:19.268Z,53.9
2019-01-25T08:46:18.972Z,43
2019-01-25T08:48:18.672Z,40.6
2019-01-25T08:50:19.531Z,42.8
2019-01-25T08:52:19.216Z,38.7
2019-01-25T08:54:18.938Z,36.8
2019-01-25T08:56:19.355Z,35.4
2019-01-25T08:58:18.980Z,35.3
2019-01-25T09:00:18.640Z,44.7
2019-01-25T09:02:19.536Z,45.9
2019-01-25T09:04:19.177Z,43.9
2019-01-25T09:06:19.207Z,27.3
2019-01-25T09:08:18.854Z,44.6
2019-01-25T09:10:19.016Z,36.8
2019-01-25T09:12:23.673Z,45.1
2019-01-25T09:14:19.325Z,40.6
2019-01-25T09:16:19.436Z,35.2
2019-01-25T09:18:19.139Z,30.8
2019-01-25T09:20:18.765Z,41
2019-01-25T09:22:19.411Z,44.1
2019-01-25T09:24:19.057Z,41.6
2019-01-25T09:26:18.873Z,38.5
2019-01-25T09:28:19.509Z,38.5
2019-01-25T09:30:19.151Z,33.3
2019-01-25T09:32:18.799Z,42.4
2019-01-25T09:34:19.430Z,41.5
2019-01-25T09:36:18.850Z,43.8
2019-01-25T09:38:19.479Z,39.7
2019-01-25T09:40:18.673Z,33.5
2019-01-25T09:42:19.314Z,46.2
2019-01-25T09:44:18.948Z,42
2019-01-25T09:46:18.777Z,38.1
2019-01-25T09:48:19.404Z,39.3
2019-01-25T09:50:19.060Z,41.8
2019-01-25T09:52:19.037Z,31.9
2019-01-25T09:54:18.671Z,38.8
2019-01-25T09:56:19.020Z,41.5
2019-01-25T09:58:18.630Z,40.9
2019-01-25T10:00:19.272Z,40.7
2019-01-25T10:02:18.887Z,52.7
2019-01-25T10:04:19.523Z,37.8
2019-01-25T10:06:19.504Z,37.7
2019-01-25T10:08:19.137Z,35.3
2019-01-25T10:10:19.244Z,36.2
2019-01-25T10:12:18.902Z,50.2
2019-01-25T10:14:19.519Z,38
2019-01-25T10:16:18.596Z,34.9
2019-01-25T10:18:19.313Z,35.9
2019-01-25T10:20:18.948Z,40.6
2019-01-25T10:22:18.559Z,32.9
2019-01-25T10:24:19.178Z,36.4
2019-01-25T10:26:19.482Z,24.3
2019-01-25T10:28:19.126Z,39.6
2019-01-25T10:30:18.773Z,50.6
2019-01-25T10:32:19.387Z,29.9
2019-01-25T10:34:18.986Z,46.2
2019-01-25T10:36:19.432Z,38.4
2019-01-25T10:38:19.065Z,38.6
2019-01-25T10:40:19.168Z,39.7
2019-01-25T10:42:18.772Z,42.6
2019-01-25T10:44:19.387Z,43.3
2019-01-25T10:46:18.956Z,43
2019-01-25T10:48:18.601Z,49.5
2019-01-25T10:50:19.234Z,36.4
2019-01-25T10:52:18.869Z,41.1
2019-01-25T10:54:19.491Z,40.1
2019-01-25T10:56:19.347Z,39.7
2019-01-25T10:58:18.976Z,30.1
2019-01-25T11:00:18.588Z,40.2
2019-01-25T11:02:19.214Z,32.5
2019-01-25T11:04:18.837Z,35.3
2019-01-25T11:06:19.332Z,37.1
2019-01-25T11:08:18.950Z,35.5
2019-01-25T11:10:19.139Z,31.5
2019-01-25T11:12:18.780Z,37.2
2019-01-25T11:14:19.428Z,42.8
2019-01-25T11:16:19.288Z,31.4
2019-01-25T11:18:18.975Z,33.5
2019-01-25T11:20:18.703Z,40.7
2019-01-25T11:22:19.320Z,38.2
2019-01-25T11:24:18.937Z,35.2
2019-01-25T11:26:19.284Z,34.7
2019-01-25T11:28:18.933Z,46.6
2019-01-25T11:30:18.606Z,40.7
2019-01-25T11:32:19.216Z,37.9
2019-01-25T11:34:18.852Z,38.7
2019-01-25T11:36:19.164Z,39.5
2019-01-25T11:38:18.816Z,42.1
2019-01-25T11:40:18.979Z,43.1
2019-01-25T11:42:18.633Z,39.1
2019-01-25T11:44:19.288Z,35.9
2019-01-25T11:46:19.146Z,39.3
2019-01-25T11:48:18.809Z,44.7
2019-01-25T11:50:19.463Z,48
2019-01-25T11:52:19.114Z,40.8
2019-01-25T11:54:18.744Z,29.5
2019-01-25T11:56:19.046Z,33
2019-01-25T11:58:18.682Z,36.7
2019-01-25T12:00:19.307Z,39.6
2019-01-25T12:02:21.244Z,41.8
2019-01-25T12:04:18.879Z,33.2
2019-01-25T12:06:19.453Z,38.7
2019-01-25T12:08:19.113Z,36.2
2019-01-25T12:10:19.289Z,39.6
2019-01-25T12:12:19.618Z,30.1
2019-01-25T12:14:19.252Z,40.3
2019-01-25T12:16:19.129Z,34.1
2019-01-25T12:18:19.018Z,40.9
2019-01-25T12:20:18.748Z,40.8
2019-01-25T12:22:19.387Z,34.1
2019-01-25T12:24:19.026Z,32.6
2019-01-25T12:26:18.935Z,37
2019-01-25T12:28:19.564Z,36.9
2019-01-25T12:30:19.219Z,41.7
2019-01-25T12:32:18.868Z,35.3
2019-01-25T12:34:19.490Z,33.5
2019-01-25T12:36:19.414Z,33.3
2019-01-25T12:38:19.030Z,34.2
2019-01-25T12:40:19.163Z,37
2019-01-25T12:42:18.807Z,40.8
2019-01-25T12:44:19.432Z,42.4
2019-01-25T12:46:19.520Z,36.9
2019-01-25T12:48:19.204Z,33.3
2019-01-25T12:50:18.907Z,37.2
2019-01-25T12:52:18.583Z,38.8
2019-01-25T12:54:19.197Z,43
2019-01-25T12:56:19.067Z,44.3
2019-01-25T12:58:18.728Z,41.5
2019-01-25T13:00:19.444Z,37.9
2019-01-25T13:02:19.095Z,39.6
2019-01-25T13:04:18.699Z,35.5
2019-01-25T13:06:19.521Z,37.7
2019-01-25T13:08:19.144Z,40.7
2019-01-25T13:10:19.282Z,43
2019-01-25T13:12:18.920Z,34.2
2019-01-25T13:14:19.541Z,33.5
2019-01-25T13:16:18.632Z,35.2
2019-01-25T13:18:19.377Z,43.5
2019-01-25T13:20:19.065Z,39.4
2019-01-25T13:22:18.689Z,37.7
2019-01-25T13:24:19.330Z,35
2019-01-25T13:26:19.110Z,36.7
2019-01-25T13:28:18.780Z,35.4
2019-01-25T13:30:19.731Z,36.7
2019-01-25T13:32:19.394Z,35.5
2019-01-25T13:34:19.082Z,38.2
2019-01-25T13:36:19.104Z,42.9
2019-01-25T13:38:18.750Z,35.4
2019-01-25T13:40:18.907Z,42.1
2019-01-25T13:42:19.526Z,40.6
2019-01-25T13:44:19.199Z,41.3
2019-01-25T13:46:19.009Z,40.4
2019-01-25T13:48:18.638Z,40.2
2019-01-25T13:50:19.307Z,44.5
2019-01-25T13:52:18.799Z,35
2019-01-25T13:54:19.435Z,39.9
2019-01-25T13:56:19.364Z,36.7
2019-01-25T13:58:18.987Z,41.8
2019-01-25T14:00:18.631Z,35.2
2019-01-25T14:02:19.292Z,40.6
2019-01-25T14:04:18.939Z,35.4
2019-01-25T14:06:18.893Z,32.8
2019-01-25T14:08:19.542Z,44.8
2019-01-25T14:10:18.691Z,44.8
2019-01-25T14:12:19.336Z,34.1
2019-01-25T14:14:18.971Z,44.3
2019-01-25T14:16:19.325Z,42.6
2019-01-25T14:18:19.034Z,39.7
2019-01-25T14:20:23.764Z,38.1
2019-01-25T14:22:19.470Z,39.1
2019-01-25T14:24:19.109Z,37.9
2019-01-25T14:26:19.287Z,37
2019-01-25T14:28:18.930Z,39
2019-01-25T14:30:19.566Z,30.3
2019-01-25T14:32:18.925Z,36.7
2019-01-25T14:34:19.569Z,30.1
2019-01-25T14:36:19.128Z,30.3
2019-01-25T14:38:18.783Z,45.4
2019-01-25T14:40:18.900Z,32.8
2019-01-25T14:42:19.530Z,32.5
2019-01-25T14:44:19.152Z,34.8
2019-01-25T14:46:18.939Z,33.1
2019-01-25T14:48:19.563Z,27.5
2019-01-25T14:50:19.224Z,36.1
2019-01-25T14:52:18.860Z,32.8
2019-01-25T14:54:19.524Z,37.1
2019-01-25T14:56:19.045Z,42.1
2019-01-25T14:58:18.669Z,33.7
2019-01-25T15:00:19.304Z,43.8
2019-01-25T15:02:18.922Z,40.9
2019-01-25T15:04:19.568Z,36.7
2019-01-25T15:06:18.578Z,35.6
2019-01-25T15:08:19.240Z,32.4
2019-01-25T15:10:19.423Z,36.6
2019-01-25T15:12:19.357Z,42.7
2019-01-25T15:14:18.997Z,35.2
2019-01-25T15:16:18.881Z,30.1
2019-01-25T15:18:18.574Z,35.6
2019-01-25T15:20:19.225Z,34.5
2019-01-25T15:22:18.859Z,40.4
2019-01-25T15:24:19.498Z,35
2019-01-25T15:26:19.304Z,36.3
2019-01-25T15:28:18.936Z,35.8
2019-01-25T15:30:18.575Z,34
2019-01-25T15:32:19.198Z,38.7
2019-01-25T15:34:18.807Z,36.6
2019-01-25T15:36:19.144Z,38.1
2019-01-25T15:38:18.776Z,36.3
2019-01-25T15:40:18.958Z,30.8
2019-01-25T15:42:18.605Z,34.1
2019-01-25T15:44:19.236Z,40.2
2019-01-25T15:46:18.711Z,29.3
2019-01-25T15:48:19.349Z,36.5
2019-01-25T15:50:19.020Z,30.1
2019-01-25T15:52:18.656Z,40.1
2019-01-25T15:54:19.302Z,44.3
2019-01-25T15:56:18.894Z,36.5
2019-01-25T15:58:19.537Z,35.4
2019-01-25T16:00:19.195Z,32.7
2019-01-25T16:02:18.834Z,40.7
2019-01-25T16:04:19.463Z,31.6
2019-01-25T16:06:19.274Z,37.4
2019-01-25T16:08:18.930Z,38.4
2019-01-25T16:10:19.058Z,41.9
2019-01-25T16:12:18.685Z,41.9
2019-01-25T16:14:19.331Z,30.8
2019-01-25T16:16:19.130Z,46.4
2019-01-25T16:18:18.845Z,38.9
2019-01-25T16:20:19.487Z,32.2
2019-01-25T16:22:19.126Z,41.3
2019-01-25T16:24:18.735Z,37
2019-01-25T16:26:19.536Z,37.7
2019-01-25T16:28:19.155Z,40.6
2019-01-25T16:30:18.800Z,39.3
2019-01-25T16:32:19.422Z,39.6
2019-01-25T16:34:19.065Z,44.7
2019-01-25T16:36:19.334Z,41.7
2019-01-25T16:38:18.961Z,39.8
2019-01-25T16:40:19.200Z,44.1
2019-01-25T16:42:18.857Z,40.6
2019-01-25T16:44:25.957Z,37.1
2019-01-25T16:46:19.239Z,41.7
2019-01-25T16:48:18.859Z,50.4
2019-01-25T16:50:24.214Z,47
2019-01-25T16:52:18.868Z,47.4
2019-01-25T16:54:19.476Z,43.3
2019-01-25T16:56:19.458Z,48.9
2019-01-25T16:58:19.099Z,58.8
2019-01-25T17:00:18.748Z,49.8
2019-01-25T17:02:19.422Z,51.6
2019-01-25T17:04:19.056Z,50.4
2019-01-25T17:06:19.454Z,42.7
2019-01-25T17:08:20.254Z,40.6
2019-01-25T17:10:19.370Z,45.7
2019-01-25T17:12:18.990Z,48.6
2019-01-25T17:14:18.632Z,50.9
2019-01-25T17:16:18.905Z,49.4
2019-01-25T17:18:18.637Z,42.4
2019-01-25T17:20:21.723Z,42.5
2019-01-25T17:22:19.381Z,49.7
2019-01-25T17:24:19.026Z,42.3
2019-01-25T17:26:18.846Z,42.9
2019-01-25T17:28:19.493Z,52.2
2019-01-25T17:30:19.132Z,43
2019-01-25T17:32:18.785Z,51.5
2019-01-25T17:34:19.474Z,47.2
2019-01-25T17:36:19.311Z,47.8
2019-01-25T17:38:18.943Z,46.6
2019-01-25T17:40:19.202Z,48.8
2019-01-25T17:42:18.846Z,40.7
2019-01-25T17:44:19.463Z,51.1
2019-01-25T17:46:19.294Z,51.8
2019-01-25T17:48:20.492Z,49.7
2019-01-25T17:50:19.239Z,42.5
2019-01-25T17:52:18.869Z,41.2
2019-01-25T17:54:19.479Z,42.8
2019-01-25T17:56:19.323Z,39.9
2019-01-25T17:58:18.963Z,51.2
2019-01-25T18:00:18.590Z,51.5
2019-01-25T18:02:19.038Z,52.6
2019-01-25T18:04:18.660Z,51.6
2019-01-25T18:06:18.916Z,61.5
2019-01-25T18:08:19.556Z,43.8
2019-01-25T18:10:18.762Z,56.3
2019-01-25T18:12:19.412Z,48.2
2019-01-25T18:14:19.069Z,48.1
2019-01-25T18:16:19.081Z,52.1
2019-01-25T18:18:18.802Z,51.4
2019-01-25T18:20:19.511Z,41.6
2019-01-25T18:22:19.462Z,47.1
2019-01-25T18:24:19.091Z,49.5
2019-01-25T18:26:19.424Z,54
2019-01-25T18:28:19.047Z,44.5
2019-01-25T18:30:18.686Z,59.3
2019-01-25T18:32:19.316Z,50.6
2019-01-25T18:34:18.942Z,44.3
2019-01-25T18:36:19.444Z,51.6
2019-01-25T18:38:19.064Z,53.1
2019-01-25T18:40:19.177Z,55.9
2019-01-25T18:42:18.859Z,60.4
2019-01-25T18:44:19.517Z,52.9
2019-01-25T18:46:19.105Z,48.5
2019-01-25T18:48:18.750Z,47.9
2019-01-25T18:50:19.398Z,49.3
2019-01-25T18:52:19.064Z,46.3
2019-01-25T18:54:18.702Z,46.4
2019-01-25T18:56:19.525Z,44.4
2019-01-25T18:58:19.171Z,48.4
2019-01-25T19:00:18.816Z,52.8
2019-01-25T19:02:18.924Z,49.6
2019-01-25T19:04:19.562Z,48.2
2019-01-25T19:06:19.558Z,50.3
2019-01-25T19:08:19.261Z,51.2
2019-01-25T19:10:19.396Z,47.7
2019-01-25T19:12:19.037Z,34.2
2019-01-25T19:14:18.662Z,38.1
2019-01-25T19:16:19.062Z,48.3
2019-01-25T19:18:18.754Z,40.7
2019-01-25T19:20:19.378Z,36.1
2019-01-25T19:22:19.031Z,34.8
2019-01-25T19:24:18.657Z,40.2
2019-01-25T19:26:19.803Z,35.8
2019-01-25T19:28:19.475Z,38.6
2019-01-25T19:30:20.759Z,32.9
2019-01-25T19:32:19.388Z,45.9
2019-01-25T19:34:19.054Z,38.9
2019-01-25T19:36:18.838Z,30.9
2019-01-25T19:38:19.489Z,34.7
2019-01-25T19:40:18.690Z,31.9
2019-01-25T19:42:19.231Z,29.3
2019-01-25T19:44:18.889Z,29.7
2019-01-25T19:46:19.177Z,31.9
2019-01-25T19:48:18.801Z,36.2
2019-01-25T19:50:19.425Z,33.1
2019-01-25T19:52:19.067Z,31.7
2019-01-25T19:54:18.694Z,34.5
2019-01-25T19:56:19.048Z,39.1
2019-01-25T19:58:18.689Z,29.8
2019-01-25T20:00:19.352Z,27.8
2019-01-25T20:02:18.966Z,20.6
2019-01-25T20:04:18.585Z,24.8
2019-01-25T20:06:18.836Z,29.9
2019-01-25T20:08:19.464Z,33.8
2019-01-25T20:10:18.599Z,22.6
2019-01-25T20:12:19.243Z,27.1
2019-01-25T20:14:18.872Z,27.6
2019-01-25T20:16:18.625Z,33.8
2019-01-25T20:18:19.318Z,32.3
2019-01-25T20:20:18.952Z,27.1
2019-01-25T20:22:18.591Z,23.5
2019-01-25T20:24:19.242Z,26
2019-01-25T20:26:19.552Z,29.3
2019-01-25T20:28:19.208Z,21.5
2019-01-25T20:30:18.848Z,27.1
2019-01-25T20:32:18.970Z,33.9
2019-01-25T20:34:18.595Z,23.1
2019-01-25T20:36:19.481Z,21
2019-01-25T20:38:19.118Z,29.9
2019-01-25T20:40:19.219Z,27
2019-01-25T20:42:18.863Z,26.6
2019-01-25T20:44:19.522Z,25.7
2019-01-25T20:46:18.867Z,25.5
2019-01-25T20:48:20.759Z,21.2
2019-01-25T20:50:19.412Z,18.9
2019-01-25T20:52:19.039Z,22.6
2019-01-25T20:54:18.638Z,23
2019-01-25T20:56:18.665Z,16.5
2019-01-25T20:58:19.296Z,24.3
2019-01-25T21:00:18.943Z,27.5
2019-01-25T21:02:18.577Z,18
2019-01-25T21:04:19.212Z,31
2019-01-25T21:06:19.078Z,23.8
2019-01-25T21:08:18.733Z,32.3
2019-01-25T21:10:18.943Z,22.4
2019-01-25T21:12:18.604Z,20.6
2019-01-25T21:14:19.231Z,24.1
2019-01-25T21:16:19.070Z,19.2
2019-01-25T21:18:18.789Z,24.1
2019-01-25T21:20:19.465Z,22.1
2019-01-25T21:22:19.078Z,23.3
2019-01-25T21:24:18.702Z,22.6
2019-01-25T21:26:18.573Z,25.8
2019-01-25T21:28:19.222Z,30.3
2019-01-25T21:30:18.917Z,30.2
2019-01-25T21:32:19.573Z,29.7
2019-01-25T21:34:19.211Z,23.8
2019-01-25T21:36:19.564Z,27.1
2019-01-25T21:38:19.224Z,24.2
2019-01-25T21:40:19.340Z,28.1
2019-01-25T21:42:18.992Z,36.7
2019-01-25T21:44:18.636Z,22.1
2019-01-25T21:46:19.502Z,21
2019-01-25T21:48:19.174Z,22.7
2019-01-25T21:50:18.825Z,28.9
2019-01-25T21:52:19.461Z,27.3
2019-01-25T21:54:19.087Z,24.1
2019-01-25T21:56:18.892Z,29.4
2019-01-25T21:58:19.538Z,28.7
2019-01-25T22:00:19.235Z,27.1
2019-01-25T22:02:18.899Z,25
2019-01-25T22:04:19.535Z,29
2019-01-25T22:06:19.493Z,31.5
2019-01-25T22:08:19.175Z,29.6
2019-01-25T22:10:19.298Z,26.4
2019-01-25T22:12:18.958Z,22.3
2019-01-25T22:14:18.587Z,27.8
2019-01-25T22:16:19.019Z,25.9
2019-01-25T22:18:18.769Z,26.2
2019-01-25T22:20:19.428Z,23.4
2019-01-25T22:22:19.088Z,32.7
2019-01-25T22:24:18.767Z,29.9
2019-01-25T22:26:19.596Z,25.4
2019-01-25T22:28:19.227Z,30.6
2019-01-25T22:30:18.865Z,30.1
2019-01-25T22:32:19.485Z,32.8
2019-01-25T22:34:19.115Z,24.4
2019-01-25T22:36:19.564Z,31.7
2019-01-25T22:38:19.215Z,30.6
2019-01-25T22:40:19.350Z,35.5
2019-01-25T22:42:18.984Z,25.5
2019-01-25T22:44:18.618Z,30.4
2019-01-25T22:46:18.926Z,29.5
2019-01-25T22:48:19.600Z,38.6
2019-01-25T22:50:19.270Z,36.1
2019-01-25T22:52:18.912Z,24.5
2019-01-25T22:54:19.571Z,31.5
2019-01-25T22:56:19.413Z,33.7
2019-01-25T22:58:19.057Z,29.4
2019-01-25T23:00:18.720Z,30
2019-01-25T23:02:19.369Z,30.9
2019-01-25T23:04:19.016Z,25.2
2019-01-25T23:06:19.479Z,26.9
2019-01-25T23:08:19.120Z,31.3
2019-01-25T23:10:19.297Z,29.6
2019-01-25T23:12:18.780Z,39.7
2019-01-25T23:14:19.430Z,36.7
2019-01-25T23:16:18.734Z,29.2
2019-01-25T23:18:19.443Z,30.7
2019-01-25T23:20:19.092Z,28.3
2019-01-25T23:22:18.757Z,25.3
2019-01-25T23:24:19.365Z,32.6
2019-01-25T23:26:18.710Z,36.4
2019-01-25T23:28:19.337Z,31.2
2019-01-25T23:30:18.956Z,36.5
2019-01-25T23:32:18.603Z,34.2
2019-01-25T23:34:19.243Z,37.8
2019-01-25T23:36:19.042Z,32.8
2019-01-25T23:38:18.656Z,33.6
2019-01-25T23:40:18.773Z,34.7
2019-01-25T23:42:19.406Z,29.7
2019-01-25T23:44:19.019Z,30
2019-01-25T23:46:19.332Z,31.7
2019-01-25T23:48:18.962Z,32.2
2019-01-25T23:50:18.602Z,23
2019-01-25T23:52:19.240Z,26.1
2019-01-25T23:54:18.910Z,34.4
2019-01-25T23:56:19.311Z,26.1
2019-01-25T23:58:18.942Z,27.1
